sensor_id;sensor_type;location;lat;lon;timestamp;temperature;humidity
20957;DHT22;10637;47.970;7.830;2023-05-07T00:00:30;14.30;99.90
20957;DHT22;10637;47.970;7.830;2023-05-07T00:05:31;14.10;99.90
20957;DHT22;10637;47.970;7.830;2023-05-07T00:10:33;13.90;99.90
20957;DHT22;10637;47.970;7.830;2023-05-07T00:15:35;13.90;99.90
20957;DHT22;10637;47.970;7.830;2023-05-07T00:20:37;14.00;99.90
20957;DHT22;10637;47.970;7.830;2023-05-07T00:25:38;14.10;99.90
20957;DHT22;10637;47.970;7.830;2023-05-07T00:30:40;14.00;99.90
20957;DHT22;10637;47.970;7.830;2023-05-07T00:35:42;14.00;99.90
20957;DHT22;10637;47.970;7.830;2023-05-07T00:40:44;14.10;99.90
20957;DHT22;10637;47.970;7.830;2023-05-07T00:45:47;14.00;99.90
20957;DHT22;10637;47.970;7.830;2023-05-07T00:50:48;13.70;99.90
20957;DHT22;10637;47.970;7.830;2023-05-07T00:55:50;13.70;99.90
20957;DHT22;10637;47.970;7.830;2023-05-07T01:00:52;13.70;99.90
20957;DHT22;10637;47.970;7.830;2023-05-07T01:05:55;13.80;99.90
20957;DHT22;10637;47.970;7.830;2023-05-07T01:11:00;13.70;99.90
20957;DHT22;10637;47.970;7.830;2023-05-07T01:16:03;13.80;99.90
20957;DHT22;10637;47.970;7.830;2023-05-07T01:21:05;13.90;99.90
20957;DHT22;10637;47.970;7.830;2023-05-07T01:26:08;13.90;99.90
20957;DHT22;10637;47.970;7.830;2023-05-07T01:31:11;13.90;99.90
20957;DHT22;10637;47.970;7.830;2023-05-07T01:36:14;13.90;99.90
20957;DHT22;10637;47.970;7.830;2023-05-07T01:41:16;13.90;99.90
20957;DHT22;10637;47.970;7.830;2023-05-07T01:46:18;13.80;99.90
20957;DHT22;10637;47.970;7.830;2023-05-07T01:51:21;13.80;99.90
20957;DHT22;10637;47.970;7.830;2023-05-07T01:56:24;13.90;99.90
20957;DHT22;10637;47.970;7.830;2023-05-07T02:01:26;13.60;99.90
20957;DHT22;10637;47.970;7.830;2023-05-07T02:06:28;13.40;99.90
20957;DHT22;10637;47.970;7.830;2023-05-07T02:11:30;13.20;99.90
20957;DHT22;10637;47.970;7.830;2023-05-07T02:16:31;13.20;99.90
20957;DHT22;10637;47.970;7.830;2023-05-07T02:21:33;13.30;99.90
20957;DHT22;10637;47.970;7.830;2023-05-07T02:26:35;13.00;99.90
20957;DHT22;10637;47.970;7.830;2023-05-07T02:31:36;13.10;99.90
20957;DHT22;10637;47.970;7.830;2023-05-07T02:36:38;13.20;99.90
20957;DHT22;10637;47.970;7.830;2023-05-07T02:41:40;13.20;99.90
20957;DHT22;10637;47.970;7.830;2023-05-07T02:46:41;13.30;99.90
20957;DHT22;10637;47.970;7.830;2023-05-07T02:51:43;13.20;99.90
20957;DHT22;10637;47.970;7.830;2023-05-07T02:56:45;13.10;99.90
20957;DHT22;10637;47.970;7.830;2023-05-07T03:01:46;13.10;99.90
20957;DHT22;10637;47.970;7.830;2023-05-07T03:06:49;13.10;99.90
20957;DHT22;10637;47.970;7.830;2023-05-07T03:11:51;12.60;99.90
20957;DHT22;10637;47.970;7.830;2023-05-07T03:16:53;12.60;99.90
20957;DHT22;10637;47.970;7.830;2023-05-07T03:21:55;12.50;99.90
20957;DHT22;10637;47.970;7.830;2023-05-07T03:26:56;12.60;99.90
20957;DHT22;10637;47.970;7.830;2023-05-07T03:31:59;12.80;99.90
20957;DHT22;10637;47.970;7.830;2023-05-07T03:37:00;13.00;99.90
20957;DHT22;10637;47.970;7.830;2023-05-07T03:42:02;13.00;99.90
20957;DHT22;10637;47.970;7.830;2023-05-07T03:47:04;13.00;99.90
20957;DHT22;10637;47.970;7.830;2023-05-07T03:52:06;12.90;99.90
20957;DHT22;10637;47.970;7.830;2023-05-07T03:57:08;12.90;99.90
20957;DHT22;10637;47.970;7.830;2023-05-07T04:02:09;12.80;99.90
20957;DHT22;10637;47.970;7.830;2023-05-07T04:07:11;12.90;99.90
20957;DHT22;10637;47.970;7.830;2023-05-07T04:12:13;12.90;99.90
20957;DHT22;10637;47.970;7.830;2023-05-07T04:17:15;12.80;99.90
20957;DHT22;10637;47.970;7.830;2023-05-07T04:22:16;12.60;99.90
20957;DHT22;10637;47.970;7.830;2023-05-07T04:27:18;12.70;99.90
20957;DHT22;10637;47.970;7.830;2023-05-07T04:32:20;12.80;99.90
20957;DHT22;10637;47.970;7.830;2023-05-07T04:37:21;13.00;99.90
20957;DHT22;10637;47.970;7.830;2023-05-07T04:42:23;13.20;99.90
20957;DHT22;10637;47.970;7.830;2023-05-07T04:47:25;13.30;99.90
20957;DHT22;10637;47.970;7.830;2023-05-07T04:52:27;13.10;99.90
20957;DHT22;10637;47.970;7.830;2023-05-07T04:57:29;13.30;99.90
20957;DHT22;10637;47.970;7.830;2023-05-07T05:02:30;13.40;99.90
20957;DHT22;10637;47.970;7.830;2023-05-07T05:07:32;13.70;99.90
20957;DHT22;10637;47.970;7.830;2023-05-07T05:12:34;14.00;99.90
20957;DHT22;10637;47.970;7.830;2023-05-07T05:17:36;14.00;99.90
20957;DHT22;10637;47.970;7.830;2023-05-07T05:22:38;13.90;99.90
20957;DHT22;10637;47.970;7.830;2023-05-07T05:27:40;14.30;99.90
20957;DHT22;10637;47.970;7.830;2023-05-07T05:32:42;14.60;99.90
20957;DHT22;10637;47.970;7.830;2023-05-07T05:37:43;14.30;99.90
20957;DHT22;10637;47.970;7.830;2023-05-07T05:42:45;14.60;99.90
20957;DHT22;10637;47.970;7.830;2023-05-07T05:47:48;14.90;99.90
20957;DHT22;10637;47.970;7.830;2023-05-07T05:52:50;15.20;99.90
20957;DHT22;10637;47.970;7.830;2023-05-07T05:57:52;15.50;99.90
20957;DHT22;10637;47.970;7.830;2023-05-07T06:02:54;15.90;99.90
20957;DHT22;10637;47.970;7.830;2023-05-07T06:07:56;16.20;99.90
20957;DHT22;10637;47.970;7.830;2023-05-07T06:12:57;16.30;99.90
20957;DHT22;10637;47.970;7.830;2023-05-07T06:17:59;16.60;99.90
20957;DHT22;10637;47.970;7.830;2023-05-07T06:23:01;17.00;99.90
20957;DHT22;10637;47.970;7.830;2023-05-07T06:28:03;17.30;99.90
20957;DHT22;10637;47.970;7.830;2023-05-07T06:33:05;17.70;99.90
20957;DHT22;10637;47.970;7.830;2023-05-07T06:38:06;17.80;99.90
20957;DHT22;10637;47.970;7.830;2023-05-07T06:43:08;17.70;99.90
20957;DHT22;10637;47.970;7.830;2023-05-07T06:48:10;17.70;99.90
20957;DHT22;10637;47.970;7.830;2023-05-07T06:53:12;17.90;99.90
20957;DHT22;10637;47.970;7.830;2023-05-07T06:58:13;18.10;99.90
20957;DHT22;10637;47.970;7.830;2023-05-07T07:03:15;18.40;99.90
20957;DHT22;10637;47.970;7.830;2023-05-07T07:08:17;18.50;99.90
20957;DHT22;10637;47.970;7.830;2023-05-07T07:13:19;18.40;99.90
20957;DHT22;10637;47.970;7.830;2023-05-07T07:18:21;18.80;99.90
20957;DHT22;10637;47.970;7.830;2023-05-07T07:23:23;19.10;99.90
20957;DHT22;10637;47.970;7.830;2023-05-07T07:28:25;19.20;99.90
20957;DHT22;10637;47.970;7.830;2023-05-07T07:33:27;19.50;99.90
20957;DHT22;10637;47.970;7.830;2023-05-07T07:38:28;19.80;99.90
20957;DHT22;10637;47.970;7.830;2023-05-07T07:43:30;19.80;99.90
20957;DHT22;10637;47.970;7.830;2023-05-07T07:48:32;20.30;99.90
20957;DHT22;10637;47.970;7.830;2023-05-07T07:53:34;20.10;99.90
20957;DHT22;10637;47.970;7.830;2023-05-07T07:58:36;20.30;99.90
20957;DHT22;10637;47.970;7.830;2023-05-07T08:03:39;20.10;99.90
20957;DHT22;10637;47.970;7.830;2023-05-07T08:08:41;20.70;99.90
20957;DHT22;10637;47.970;7.830;2023-05-07T08:13:43;21.30;99.90
20957;DHT22;10637;47.970;7.830;2023-05-07T08:18:44;21.60;99.90
20957;DHT22;10637;47.970;7.830;2023-05-07T08:23:46;21.70;99.90
20957;DHT22;10637;47.970;7.830;2023-05-07T08:28:48;22.10;99.90
20957;DHT22;10637;47.970;7.830;2023-05-07T08:33:50;22.20;99.90
20957;DHT22;10637;47.970;7.830;2023-05-07T08:38:52;22.30;99.90
20957;DHT22;10637;47.970;7.830;2023-05-07T08:43:58;22.40;99.90
20957;DHT22;10637;47.970;7.830;2023-05-07T08:49:00;22.10;99.90
20957;DHT22;10637;47.970;7.830;2023-05-07T08:54:02;20.80;99.90
20957;DHT22;10637;47.970;7.830;2023-05-07T08:59:05;20.80;99.90
20957;DHT22;10637;47.970;7.830;2023-05-07T09:04:07;21.10;99.90
20957;DHT22;10637;47.970;7.830;2023-05-07T09:09:09;21.80;99.90
20957;DHT22;10637;47.970;7.830;2023-05-07T09:14:10;22.60;99.90
20957;DHT22;10637;47.970;7.830;2023-05-07T09:19:12;22.70;99.90
20957;DHT22;10637;47.970;7.830;2023-05-07T09:24:15;22.90;99.90
20957;DHT22;10637;47.970;7.830;2023-05-07T09:29:18;22.50;99.90
20957;DHT22;10637;47.970;7.830;2023-05-07T09:34:20;22.30;99.90
20957;DHT22;10637;47.970;7.830;2023-05-07T09:39:22;21.80;99.90
20957;DHT22;10637;47.970;7.830;2023-05-07T09:44:24;21.80;99.90
20957;DHT22;10637;47.970;7.830;2023-05-07T09:49:29;21.30;99.90
20957;DHT22;10637;47.970;7.830;2023-05-07T09:54:32;21.20;99.90
20957;DHT22;10637;47.970;7.830;2023-05-07T09:59:37;20.50;99.90
20957;DHT22;10637;47.970;7.830;2023-05-07T10:04:39;20.10;99.90
20957;DHT22;10637;47.970;7.830;2023-05-07T10:09:42;19.80;99.90
20957;DHT22;10637;47.970;7.830;2023-05-07T10:14:46;19.20;99.90
20957;DHT22;10637;47.970;7.830;2023-05-07T10:19:50;18.90;99.90
20957;DHT22;10637;47.970;7.830;2023-05-07T10:24:56;18.40;99.90
20957;DHT22;10637;47.970;7.830;2023-05-07T10:35:46;17.40;99.90
20957;DHT22;10637;47.970;7.830;2023-05-07T10:40:50;17.30;99.90
20957;DHT22;10637;47.970;7.830;2023-05-07T10:46:17;17.40;99.90
20957;DHT22;10637;47.970;7.830;2023-05-07T10:51:21;17.70;99.90
20957;DHT22;10637;47.970;7.830;2023-05-07T10:56:24;18.40;99.90
20957;DHT22;10637;47.970;7.830;2023-05-07T11:01:58;19.10;99.90
20957;DHT22;10637;47.970;7.830;2023-05-07T11:12:09;20.70;99.90
20957;DHT22;10637;47.970;7.830;2023-05-07T11:17:12;22.20;99.90
20957;DHT22;10637;47.970;7.830;2023-05-07T11:22:36;22.90;99.90
20957;DHT22;10637;47.970;7.830;2023-05-07T11:27:41;23.80;99.90
20957;DHT22;10637;47.970;7.830;2023-05-07T11:32:43;24.40;99.90
20957;DHT22;10637;47.970;7.830;2023-05-07T11:37:48;25.60;99.90
20957;DHT22;10637;47.970;7.830;2023-05-07T11:42:50;25.50;99.90
20957;DHT22;10637;47.970;7.830;2023-05-07T11:47:52;25.00;99.90
20957;DHT22;10637;47.970;7.830;2023-05-07T11:52:54;24.40;99.90
20957;DHT22;10637;47.970;7.830;2023-05-07T11:57:55;23.80;99.90
20957;DHT22;10637;47.970;7.830;2023-05-07T12:03:03;23.20;99.90
20957;DHT22;10637;47.970;7.830;2023-05-07T12:08:05;23.20;99.90
20957;DHT22;10637;47.970;7.830;2023-05-07T12:13:21;23.20;99.90
20957;DHT22;10637;47.970;7.830;2023-05-07T12:18:23;23.30;99.90
20957;DHT22;10637;47.970;7.830;2023-05-07T12:23:26;23.10;99.90
20957;DHT22;10637;47.970;7.830;2023-05-07T12:28:28;23.90;99.90
20957;DHT22;10637;47.970;7.830;2023-05-07T12:33:30;24.30;99.90
20957;DHT22;10637;47.970;7.830;2023-05-07T12:38:35;23.70;99.90
20957;DHT22;10637;47.970;7.830;2023-05-07T12:43:37;23.10;99.90
20957;DHT22;10637;47.970;7.830;2023-05-07T12:48:46;22.90;99.90
20957;DHT22;10637;47.970;7.830;2023-05-07T12:53:47;22.60;99.90
20957;DHT22;10637;47.970;7.830;2023-05-07T12:58:49;22.50;99.90
20957;DHT22;10637;47.970;7.830;2023-05-07T13:03:51;22.40;99.90
20957;DHT22;10637;47.970;7.830;2023-05-07T13:08:53;22.20;99.90
20957;DHT22;10637;47.970;7.830;2023-05-07T13:13:55;22.10;99.90
20957;DHT22;10637;47.970;7.830;2023-05-07T13:18:56;21.90;99.90
20957;DHT22;10637;47.970;7.830;2023-05-07T13:23:58;21.90;99.90
20957;DHT22;10637;47.970;7.830;2023-05-07T13:29:01;22.00;99.90
20957;DHT22;10637;47.970;7.830;2023-05-07T13:34:02;22.30;99.90
20957;DHT22;10637;47.970;7.830;2023-05-07T13:39:04;22.30;99.90
20957;DHT22;10637;47.970;7.830;2023-05-07T13:44:06;22.60;99.90
20957;DHT22;10637;47.970;7.830;2023-05-07T13:49:08;23.20;99.90
20957;DHT22;10637;47.970;7.830;2023-05-07T13:54:12;23.80;99.90
20957;DHT22;10637;47.970;7.830;2023-05-07T13:59:14;23.70;99.90
20957;DHT22;10637;47.970;7.830;2023-05-07T14:04:16;23.50;99.90
20957;DHT22;10637;47.970;7.830;2023-05-07T14:09:18;23.50;99.90
20957;DHT22;10637;47.970;7.830;2023-05-07T14:14:19;23.10;99.90
20957;DHT22;10637;47.970;7.830;2023-05-07T14:19:21;22.90;99.90
20957;DHT22;10637;47.970;7.830;2023-05-07T14:24:24;23.30;99.90
20957;DHT22;10637;47.970;7.830;2023-05-07T14:29:39;23.60;99.90
20957;DHT22;10637;47.970;7.830;2023-05-07T14:34:41;24.20;99.90
20957;DHT22;10637;47.970;7.830;2023-05-07T14:39:42;24.30;99.90
20957;DHT22;10637;47.970;7.830;2023-05-07T14:44:44;25.00;99.90
20957;DHT22;10637;47.970;7.830;2023-05-07T14:49:47;25.30;99.90
20957;DHT22;10637;47.970;7.830;2023-05-07T14:54:49;24.70;99.90
20957;DHT22;10637;47.970;7.830;2023-05-07T14:59:50;24.40;99.90
20957;DHT22;10637;47.970;7.830;2023-05-07T15:04:52;24.50;99.90
20957;DHT22;10637;47.970;7.830;2023-05-07T15:09:54;24.70;99.90
20957;DHT22;10637;47.970;7.830;2023-05-07T15:14:56;24.50;99.90
20957;DHT22;10637;47.970;7.830;2023-05-07T15:19:58;24.50;99.90
20957;DHT22;10637;47.970;7.830;2023-05-07T15:25:00;24.40;99.90
20957;DHT22;10637;47.970;7.830;2023-05-07T15:30:02;24.00;99.90
20957;DHT22;10637;47.970;7.830;2023-05-07T15:35:05;23.80;99.90
20957;DHT22;10637;47.970;7.830;2023-05-07T15:40:07;24.00;99.90
20957;DHT22;10637;47.970;7.830;2023-05-07T15:45:09;24.00;99.90
20957;DHT22;10637;47.970;7.830;2023-05-07T15:50:12;23.70;99.90
20957;DHT22;10637;47.970;7.830;2023-05-07T15:55:14;23.90;99.90
20957;DHT22;10637;47.970;7.830;2023-05-07T16:00:16;23.70;99.90
20957;DHT22;10637;47.970;7.830;2023-05-07T16:05:19;23.30;99.90
20957;DHT22;10637;47.970;7.830;2023-05-07T16:10:21;23.20;99.90
20957;DHT22;10637;47.970;7.830;2023-05-07T16:15:23;23.00;99.90
20957;DHT22;10637;47.970;7.830;2023-05-07T16:20:28;22.90;99.90
20957;DHT22;10637;47.970;7.830;2023-05-07T16:25:31;22.70;99.90
20957;DHT22;10637;47.970;7.830;2023-05-07T16:30:33;22.50;99.90
20957;DHT22;10637;47.970;7.830;2023-05-07T16:35:34;22.50;99.90
20957;DHT22;10637;47.970;7.830;2023-05-07T16:40:40;22.40;99.90
20957;DHT22;10637;47.970;7.830;2023-05-07T16:45:42;22.10;99.90
20957;DHT22;10637;47.970;7.830;2023-05-07T16:50:44;21.60;99.90
20957;DHT22;10637;47.970;7.830;2023-05-07T16:55:45;21.60;99.90
20957;DHT22;10637;47.970;7.830;2023-05-07T17:00:47;21.40;99.90
20957;DHT22;10637;47.970;7.830;2023-05-07T17:05:51;21.50;99.90
20957;DHT22;10637;47.970;7.830;2023-05-07T17:10:53;21.40;99.90
20957;DHT22;10637;47.970;7.830;2023-05-07T17:15:55;21.30;99.90
20957;DHT22;10637;47.970;7.830;2023-05-07T17:20:58;21.30;99.90
20957;DHT22;10637;47.970;7.830;2023-05-07T17:25:59;21.20;99.90
20957;DHT22;10637;47.970;7.830;2023-05-07T17:31:01;21.10;99.90
20957;DHT22;10637;47.970;7.830;2023-05-07T17:36:03;21.00;99.90
20957;DHT22;10637;47.970;7.830;2023-05-07T17:41:05;20.70;99.90
20957;DHT22;10637;47.970;7.830;2023-05-07T17:46:07;20.60;99.90
20957;DHT22;10637;47.970;7.830;2023-05-07T17:51:09;20.50;99.90
20957;DHT22;10637;47.970;7.830;2023-05-07T17:56:11;20.60;99.90
20957;DHT22;10637;47.970;7.830;2023-05-07T18:01:13;20.50;99.90
20957;DHT22;10637;47.970;7.830;2023-05-07T18:06:15;20.30;99.90
20957;DHT22;10637;47.970;7.830;2023-05-07T18:11:20;20.30;99.90
20957;DHT22;10637;47.970;7.830;2023-05-07T18:16:22;20.30;99.90
20957;DHT22;10637;47.970;7.830;2023-05-07T18:21:24;20.30;99.90
20957;DHT22;10637;47.970;7.830;2023-05-07T18:26:26;20.20;99.90
20957;DHT22;10637;47.970;7.830;2023-05-07T18:31:28;20.00;99.90
20957;DHT22;10637;47.970;7.830;2023-05-07T18:36:29;19.70;99.90
20957;DHT22;10637;47.970;7.830;2023-05-07T18:41:31;19.30;99.90
20957;DHT22;10637;47.970;7.830;2023-05-07T18:46:33;19.10;99.90
20957;DHT22;10637;47.970;7.830;2023-05-07T18:51:35;18.70;99.90
20957;DHT22;10637;47.970;7.830;2023-05-07T18:56:36;18.40;99.90
20957;DHT22;10637;47.970;7.830;2023-05-07T19:01:38;18.10;99.90
20957;DHT22;10637;47.970;7.830;2023-05-07T19:06:40;17.70;99.90
20957;DHT22;10637;47.970;7.830;2023-05-07T19:11:42;17.40;99.90
20957;DHT22;10637;47.970;7.830;2023-05-07T19:16:43;17.10;99.90
20957;DHT22;10637;47.970;7.830;2023-05-07T19:21:45;17.20;99.90
20957;DHT22;10637;47.970;7.830;2023-05-07T19:26:47;17.10;99.90
20957;DHT22;10637;47.970;7.830;2023-05-07T19:31:48;17.10;99.90
20957;DHT22;10637;47.970;7.830;2023-05-07T19:36:50;17.00;99.90
20957;DHT22;10637;47.970;7.830;2023-05-07T19:41:52;16.90;99.90
20957;DHT22;10637;47.970;7.830;2023-05-07T19:46:53;16.90;99.90
20957;DHT22;10637;47.970;7.830;2023-05-07T19:51:55;16.80;99.90
20957;DHT22;10637;47.970;7.830;2023-05-07T19:56:57;16.90;99.90
20957;DHT22;10637;47.970;7.830;2023-05-07T20:01:59;16.90;99.90
20957;DHT22;10637;47.970;7.830;2023-05-07T20:07:01;16.80;99.90
20957;DHT22;10637;47.970;7.830;2023-05-07T20:12:03;16.80;99.90
20957;DHT22;10637;47.970;7.830;2023-05-07T20:17:04;16.80;99.90
20957;DHT22;10637;47.970;7.830;2023-05-07T20:22:06;16.80;99.90
20957;DHT22;10637;47.970;7.830;2023-05-07T20:27:08;16.70;99.90
20957;DHT22;10637;47.970;7.830;2023-05-07T20:32:10;16.80;99.90
20957;DHT22;10637;47.970;7.830;2023-05-07T20:37:13;16.80;99.90
20957;DHT22;10637;47.970;7.830;2023-05-07T20:42:16;16.90;99.90
20957;DHT22;10637;47.970;7.830;2023-05-07T20:47:17;17.10;99.90
20957;DHT22;10637;47.970;7.830;2023-05-07T20:52:19;17.10;99.90
20957;DHT22;10637;47.970;7.830;2023-05-07T20:57:21;17.10;99.90
20957;DHT22;10637;47.970;7.830;2023-05-07T21:02:23;17.10;99.90
20957;DHT22;10637;47.970;7.830;2023-05-07T21:07:24;17.00;99.90
20957;DHT22;10637;47.970;7.830;2023-05-07T21:12:26;17.00;99.90
20957;DHT22;10637;47.970;7.830;2023-05-07T21:17:28;16.90;99.90
20957;DHT22;10637;47.970;7.830;2023-05-07T21:22:32;16.90;99.90
20957;DHT22;10637;47.970;7.830;2023-05-07T21:27:34;16.80;99.90
20957;DHT22;10637;47.970;7.830;2023-05-07T21:32:36;16.70;99.90
20957;DHT22;10637;47.970;7.830;2023-05-07T21:37:37;16.60;99.90
20957;DHT22;10637;47.970;7.830;2023-05-07T21:42:39;16.70;99.90
20957;DHT22;10637;47.970;7.830;2023-05-07T21:47:41;16.80;99.90
20957;DHT22;10637;47.970;7.830;2023-05-07T21:52:42;17.10;99.90
20957;DHT22;10637;47.970;7.830;2023-05-07T21:57:44;17.10;99.90
20957;DHT22;10637;47.970;7.830;2023-05-07T22:03:05;17.10;99.90
20957;DHT22;10637;47.970;7.830;2023-05-07T22:08:07;16.90;99.90
20957;DHT22;10637;47.970;7.830;2023-05-07T22:13:09;16.90;99.90
20957;DHT22;10637;47.970;7.830;2023-05-07T22:18:10;16.90;99.90
20957;DHT22;10637;47.970;7.830;2023-05-07T22:23:12;16.80;99.90
20957;DHT22;10637;47.970;7.830;2023-05-07T22:28:14;16.70;99.90
20957;DHT22;10637;47.970;7.830;2023-05-07T22:33:16;16.70;99.90
20957;DHT22;10637;47.970;7.830;2023-05-07T22:38:18;16.60;99.90
20957;DHT22;10637;47.970;7.830;2023-05-07T22:43:20;16.70;99.90
20957;DHT22;10637;47.970;7.830;2023-05-07T22:48:21;16.70;99.90
20957;DHT22;10637;47.970;7.830;2023-05-07T22:53:23;16.80;99.90
20957;DHT22;10637;47.970;7.830;2023-05-07T22:58:25;16.70;99.90
20957;DHT22;10637;47.970;7.830;2023-05-07T23:03:27;16.60;99.90
20957;DHT22;10637;47.970;7.830;2023-05-07T23:08:29;16.60;99.90
20957;DHT22;10637;47.970;7.830;2023-05-07T23:13:31;16.50;99.90
20957;DHT22;10637;47.970;7.830;2023-05-07T23:18:32;16.60;99.90
20957;DHT22;10637;47.970;7.830;2023-05-07T23:23:34;16.50;99.90
20957;DHT22;10637;47.970;7.830;2023-05-07T23:28:36;16.40;99.90
20957;DHT22;10637;47.970;7.830;2023-05-07T23:33:38;16.40;99.90
20957;DHT22;10637;47.970;7.830;2023-05-07T23:38:39;16.40;99.90
20957;DHT22;10637;47.970;7.830;2023-05-07T23:43:41;16.40;99.90
20957;DHT22;10637;47.970;7.830;2023-05-07T23:48:43;16.50;99.90
20957;DHT22;10637;47.970;7.830;2023-05-07T23:53:44;16.40;99.90
20957;DHT22;10637;47.970;7.830;2023-05-07T23:58:46;16.40;99.90
